Herbert Island, British Columbia

7:00 PM PST on December 03, 2016 (GMT -0800)
Port Hardy | | Change Station

Elev 69 ft 50.68 °N, 127.37 °W | Updated 1 hour ago

Light Rain Showers
Light Showers Rain
37 °F
Feels Like 34 °F
N
5
Wind Variable Wind from WSW

Today
High -- | Low -- °F
--% Chance of Precip.
Yesterday
High -- | Low -- °F
Precip. -- in
Pressure 30.10 in
Visibility 12.0 miles
Clouds Mostly Cloudy 2500 ft
Overcast 5500 ft
Windchill 34 °F
Dew Point 34 °F
Humidity 87%
Rainfall 0.00 in
Snow Depth Not available.
8:14 AM 4:26 PM
Waxing Crescent, 19% visible
METAR CYZT 040200Z 25004KT 12SM -SHRA BKN025 OVC055 03/01 A3009 RMK CU5SC3 SLP192
Pressure 30.10 in
Visibility 12.0 miles
Clouds Mostly Cloudy 2500 ft
Overcast 5500 ft
Windchill 34 °F
Dew Point 34 °F
Humidity 87%
Rainfall 0.00 in
Snow Depth Not available.
8:14 AM 4:26 PM
Waxing Crescent, 19% visible
METAR CYZT 040200Z 25004KT 12SM -SHRA BKN025 OVC055 03/01 A3009 RMK CU5SC3 SLP192

10-Day Weather Forecast

Almanac

Astronomy

Dec. 03, 2016 Rise Set
Actual Time
Civil Twilight
Nautical Twilight
Astronomical Twilight
Moon
Length of Visible Light
Length of Day
Tomorrow will be .
, % of the Moon is Illuminated

Today's Extremes

Country Highs Country Lows

Community

WunderPhotos

Upload Photos

1,955,566 photos uploaded!

WunderBlog® & News

Nearby

Air Quality

  Air Quality AQ Index Pollutant
Not available.

Snow Depth

Station Depth Elevation

Earthquake Activity

City Distance Mag. Time & Date
Minimum magnitude displayed is 2.5.

Coastal Water Temperatures

Place Temperature

Stations

Nearby Weather Stations

Station Location Temp. Windchill Dew Point Humidity Wind Precip. Elev Updated Type
                   

Watches & Warnings

There are currently no watches in effect.